»·PEaware :: TPX9109 KSNA-KSBA

TPX9109 :: KSNA-KSBA

FLIGHT INFORMATION

Flight Status: Arrived
Operator: ATP Experience
More flights by this operator :: More flights under this callsign
Pilot: Joe C. (3077)
Aircraft: BEECH AIRCRAFT BEECH AIRLINER
(B190)
More flights by this aircraft type
Origin: KSNA John Wayne-Orange Co
United States
Destination: KSBA Santa Barbara Mun
United States
More flights between these airports :: More routes between these airports
Route: CHANL3 SXC V208 VTU VTU282 KWANG
File this flight plan on PilotEdge
Remarks:
Altitude:
(Current/Filed)
8,000ft
Speed:
(Current/Filed)
440kts
Departed: 28-Aug-18 07:01 PM
Arrived: 28-Aug-18 07:42 PM
Distance/Time
Traveled:
108nm/0:40
Distance/Time
To Go:
Arrived

Flight Plot

Page will automatically refresh every two minutes.

Flight plan parsing failed; only flown route is shown


Map Options




Map Legend


Flown Route
Filed Route
Departure Airport
Arrival Airport
Navaid (VOR, NDB)
Fix

Horizontal Profiles

Position Reports

Time Latitude Longitude Heading Altitude Ground
Speed
28-Aug-18 18:40 33.680623 -117.861387 137 61ft 0kts
28-Aug-18 18:41 33.680623 -117.861387 137 61ft 0kts
28-Aug-18 18:42 33.680623 -117.861387 137 61ft 0kts
28-Aug-18 18:43 33.680623 -117.861387 137 61ft 0kts
28-Aug-18 18:44 33.680623 -117.861387 137 61ft 0kts
28-Aug-18 18:45 33.680623 -117.861387 137 61ft 0kts
28-Aug-18 18:46 33.680623 -117.861387 137 61ft 0kts
28-Aug-18 18:47 33.680623 -117.861387 137 61ft 0kts
28-Aug-18 18:48 33.680623 -117.861387 137 61ft 0kts
28-Aug-18 18:49 33.680623 -117.861387 137 61ft 0kts
28-Aug-18 18:50 33.680623 -117.861387 137 61ft 0kts
28-Aug-18 18:51 33.680634 -117.861400 137 61ft 1kts
28-Aug-18 18:52 33.680713 -117.861486 137 61ft 0kts
28-Aug-18 18:53 33.680713 -117.861486 137 61ft 0kts
28-Aug-18 18:54 33.680705 -117.861477 137 61ft 0kts
28-Aug-18 18:55 33.680697 -117.861469 137 61ft 0kts
28-Aug-18 18:56 33.680672 -117.861440 137 61ft 0kts
28-Aug-18 18:57 33.680876 -117.861863 274 61ft 5kts
28-Aug-18 18:58 33.680616 -117.862891 294 61ft 1kts
28-Aug-18 18:59 33.680948 -117.863700 303 61ft 10kts
28-Aug-18 19:00 33.681498 -117.865208 213 61ft 0kts
28-Aug-18 19:01 33.681497 -117.865209 213 61ft 0kts
28-Aug-18 19:02 33.656424 -117.881858 207 1074ft 144kts
28-Aug-18 19:03 33.622375 -117.887724 184 2628ft 166kts
28-Aug-18 19:04 33.569186 -117.896655 204 5215ft 172kts
28-Aug-18 19:05 33.525199 -117.924846 213 5977ft 185kts
28-Aug-18 19:06 33.498763 -117.962673 240 6705ft 186kts
28-Aug-18 19:07 33.454534 -118.009122 208 7833ft 182kts
28-Aug-18 19:08 33.412999 -118.027938 207 8083ft 197kts
28-Aug-18 19:09 33.361656 -118.062281 223 8367ft 224kts
28-Aug-18 19:10 33.326891 -118.128271 268 7723ft 253kts
28-Aug-18 19:11 33.348969 -118.200560 293 8009ft 247kts
28-Aug-18 19:12 33.367556 -118.277563 279 8140ft 244kts
28-Aug-18 19:13 33.386220 -118.355694 298 8179ft 245kts
28-Aug-18 19:14 33.419906 -118.427770 294 8133ft 248kts
28-Aug-18 19:15 33.446438 -118.503418 307 8124ft 251kts
28-Aug-18 19:16 33.496854 -118.539177 325 8136ft 254kts
28-Aug-18 19:17 33.552361 -118.565566 349 8134ft 260kts
28-Aug-18 19:18 33.615183 -118.593236 329 8136ft 255kts
28-Aug-18 19:19 33.661567 -118.637689 319 8070ft 255kts
28-Aug-18 19:20 33.708500 -118.685799 313 7983ft 252kts
28-Aug-18 19:21 33.755569 -118.746519 313 8069ft 250kts
28-Aug-18 19:22 33.813716 -118.792360 328 8077ft 250kts
28-Aug-18 19:23 33.869845 -118.841463 324 8114ft 249kts
28-Aug-18 19:24 33.928592 -118.887122 329 8033ft 253kts
28-Aug-18 19:25 33.985968 -118.934447 317 8010ft 249kts
28-Aug-18 19:26 34.040554 -118.986452 323 7949ft 253kts
28-Aug-18 19:27 34.096695 -119.035942 320 8032ft 250kts
28-Aug-18 19:28 34.139281 -119.098893 288 8031ft 247kts
28-Aug-18 19:29 34.165098 -119.175611 301 8028ft 249kts
28-Aug-18 19:30 34.200004 -119.247552 293 8025ft 248kts
28-Aug-18 19:31 34.228279 -119.323162 292 8022ft 248kts
28-Aug-18 19:32 34.256862 -119.399092 293 7221ft 248kts
28-Aug-18 19:33 34.285574 -119.474342 294 6408ft 242kts
28-Aug-18 19:34 34.314300 -119.548495 295 5603ft 245kts
28-Aug-18 19:35 34.344350 -119.623061 299 4803ft 248kts
28-Aug-18 19:36 34.377154 -119.696000 299 4003ft 248kts
28-Aug-18 19:37 34.405933 -119.765524 274 3077ft 207kts
28-Aug-18 19:38 34.371519 -119.812988 216 2089ft 175kts
28-Aug-18 19:39 34.384081 -119.846482 27 1918ft 171kts
28-Aug-18 19:40 34.394878 -119.794580 91 1525ft 151kts
28-Aug-18 19:41 34.419092 -119.781011 338 1535ft 123kts
28-Aug-18 19:42 34.428566 -119.814813 267 594ft 120kts
28-Aug-18 19:43 34.427185 -119.846270 205 15ft 11kts
28-Aug-18 19:44 34.426515 -119.845177 88 15ft 5kts
28-Aug-18 19:45 34.426602 -119.842026 88 15ft 12kts
28-Aug-18 19:46 34.425671 -119.838068 166 13ft 14kts
28-Aug-18 19:47 34.424672 -119.837058 269 13ft 0kts
28-Aug-18 19:48 34.424672 -119.837058 269 13ft 0kts
28-Aug-18 19:49 34.424672 -119.837058 269 13ft 0kts
28-Aug-18 19:50 34.424672 -119.837058 269 13ft 0kts
28-Aug-18 19:51 34.424672 -119.837058 269 13ft 0kts
28-Aug-18 19:52 34.424672 -119.837058 269 13ft 0kts
28-Aug-18 19:53 34.424672 -119.837058 269 13ft 0kts
28-Aug-18 19:54 34.424672 -119.837058 269 13ft 0kts
28-Aug-18 19:55 34.424672 -119.837058 269 13ft 0kts
28-Aug-18 19:56 34.424672 -119.837058 269 13ft 0kts
28-Aug-18 19:57 34.424672 -119.837058 269 13ft 0kts

Navigation Log

Ident Type
Flight plan parsing failed, navigation log unavailable